Portada
METAR-TAF:

METAR-TAF

Aeroports :

Kupang, Indonèsia

latitud: 10-10-17S, longitud: 123-40-16E, altitud: 102 m

Observació

L'informe es va fer fa 1 hora i 5 minuts, a les 12:00 UTC
Vent 12 kt del Est/Sud-Est
Temperatura 26°C
Humitat 74%
Pressió 1010 hPa
Visibilitat: 8000 m
Escasses núvols a una alçada de 2000 ft

METAR: WATT 141200Z 11012KT 8000 FEW020 26/21 Q1010 NOSIG

Hora: 20:05 (13:05 UTC)

Pronòstic

L'informe es va fer fa 8 hores i 5 minuts, a les 05:00 UTC
Pronòstic vàlid del 14 a les 06 UTC al 15 a les 06 UTC
Vent 12 kt del Sud-Est amb ràfegues de 22 kt
Visibilitat: 9000 m
Núvols disperses a una alçada de 1800 ft
Evolucionant progressivament
l' 14 a les 14 UTC al 14 a les 15 UTC
Vent 10 kt del Est/Sud-Est

TAF: WATT 140500Z 1406/1506 13012G22KT 9000 SCT018 BECMG 1414/1415 11010KT

Observacions i pronòstics meteorològics de més de 4000 aeroports (METAR i TAF).

Les estacions disponibles són els punts grocs i vermells al mapa.

Posi el ratolí al punt desitjat per veure el nom de l'estació.

Feu clic per veure les observacions i els pronòstics meteorològics.

Per canviar el mapa: feu clic els botons verds amb una creu de color negre per apropar; al botó verd amb un guió per allunyar la imatge; o en les fletxes verdes per a mapes adjacents.


METAR-TAF: